Time;durP1;ratioP1;P1;durP2;ratioP2;P2;SDS_P1;SDS_P2;PMS_P1;PMS_P2;Temp;Humidity;BMP_temperature;BMP_pressure;BME280_temperature;BME280_humidity;BME280_pressure;Samples;Min_cycle;Max_cycle;Signal;HPM_P1;HPM_P2
2022/06/14 00:01:05;;;;;;;0.10;0.10;;;;;;;22.00;46.41;101992.97;5115872;27;20070;-41
2022/06/14 00:03:27;;;;;;;0.10;0.10;;;;;;;21.99;46.31;101994.09;5099106;27;20090;-41
2022/06/14 00:05:53;;;;;;;0.10;0.10;;;;;;;22.00;46.27;102002.13;5101457;27;20085;-41
2022/06/14 00:08:20;;;;;;;0.10;0.10;;;;;;;21.98;46.51;101993.28;5131514;27;20071;-41
2022/06/14 00:10:49;;;;;;;0.10;0.10;;;;;;;21.97;46.33;101988.81;5112859;27;20074;-41
2022/06/14 00:13:15;;;;;;;0.10;0.10;;;;;;;21.99;46.16;101991.31;5116297;28;20131;-41
2022/06/14 00:15:41;;;;;;;0.10;0.10;;;;;;;21.98;46.41;101998.00;5115230;27;20047;-41
2022/06/14 00:18:07;;;;;;;0.10;0.10;;;;;;;21.98;46.32;101993.28;5132670;27;20081;-42
2022/06/14 00:20:33;;;;;;;0.10;0.10;;;;;;;21.98;46.31;101989.66;5136201;27;20130;-42
2022/06/14 00:22:59;;;;;;;0.10;0.10;;;;;;;21.98;46.31;101992.44;5110555;27;20075;-42
2022/06/14 00:25:29;;;;;;;0.10;0.10;;;;;;;21.97;46.35;101983.25;5136936;27;20058;-42
2022/06/14 00:27:55;;;;;;;0.10;0.10;;;;;;;21.97;46.35;101986.03;5129510;27;20059;-41
2022/06/14 00:30:22;;;;;;;0.10;0.10;;;;;;;21.97;46.30;101994.34;5129238;27;20080;-41
2022/06/14 00:32:48;;;;;;;0.10;0.10;;;;;;;21.97;46.35;101987.97;5118673;27;20069;-41
2022/06/14 00:35:13;;;;;;;0.10;0.10;;;;;;;21.96;46.28;101991.88;5133272;27;20035;-41
2022/06/14 00:37:39;;;;;;;0.10;0.10;;;;;;;21.96;46.23;101989.91;5131895;27;20490;-42
2022/06/14 00:40:06;;;;;;;0.10;0.10;;;;;;;21.96;46.34;101994.63;5113086;28;20130;-41
2022/06/14 00:42:32;;;;;;;0.10;0.10;;;;;;;21.95;46.16;101993.81;5130450;27;20083;-41
2022/06/14 00:45:05;;;;;;;0.10;0.10;;;;;;;21.95;46.38;102004.91;5092875;27;20090;-42
2022/06/14 00:47:37;;;;;;;0.10;0.10;;;;;;;21.95;46.28;101993.81;5098998;27;20138;-42
2022/06/14 00:50:07;;;;;;;0.10;0.10;;;;;;;21.96;46.31;101991.88;5111831;27;20145;-41
2022/06/14 00:52:36;;;;;;;0.10;0.10;;;;;;;21.95;46.32;101993.81;5125978;27;20134;-42
2022/06/14 00:55:15;;;;;;;0.10;0.10;;;;;;;21.94;46.37;101989.38;5119575;27;20070;-42
2022/06/14 00:57:45;;;;;;;0.10;0.10;;;;;;;21.95;46.29;101990.22;5118712;27;20137;-42
2022/06/14 01:00:14;;;;;;;0.10;0.10;;;;;;;21.94;46.30;101978.28;5132032;27;20176;-42
2022/06/14 01:02:46;;;;;;;0.10;0.10;;;;;;;21.93;46.19;101984.09;5130077;27;20130;-42
2022/06/14 01:05:17;;;;;;;0.10;0.10;;;;;;;21.94;46.41;101980.22;5113281;27;20049;-42
2022/06/14 01:07:47;;;;;;;0.10;0.10;;;;;;;21.93;46.39;101982.13;5097863;27;20078;-41
2022/06/14 01:10:17;;;;;;;0.10;0.10;;;;;;;21.93;46.22;101979.38;5115653;27;20115;-41
2022/06/14 01:12:45;;;;;;;0.10;0.10;;;;;;;21.92;46.14;101977.72;5136335;27;20091;-41
2022/06/14 01:15:21;;;;;;;0.10;0.10;;;;;;;21.92;46.23;101974.94;5108158;27;20120;-41
2022/06/14 01:17:58;;;;;;;0.10;0.10;;;;;;;21.92;46.28;101974.94;5093773;28;20078;-42
2022/06/14 01:20:24;;;;;;;0.10;0.10;;;;;;;21.92;46.22;101979.66;5107813;27;20078;-42
2022/06/14 01:22:50;;;;;;;0.10;0.10;;;;;;;21.92;46.15;101982.44;5129351;27;20525;-41
2022/06/14 01:25:16;;;;;;;0.10;0.10;;;;;;;21.92;46.27;101972.16;5115341;27;20197;-41
2022/06/14 01:27:42;;;;;;;0.10;0.10;;;;;;;21.91;46.30;101978.00;5124846;27;20498;-40
2022/06/14 01:30:14;;;;;;;0.10;0.10;;;;;;;21.91;46.12;101987.16;5130998;27;20066;-41
2022/06/14 01:32:50;;;;;;;0.10;0.10;;;;;;;21.90;45.98;101974.41;5130233;27;20512;-40
2022/06/14 01:35:21;;;;;;;0.10;0.10;;;;;;;21.90;45.97;101971.63;5110282;27;20134;-42
2022/06/14 01:37:49;;;;;;;0.10;0.10;;;;;;;21.90;46.13;101977.16;5112898;27;20158;-42
2022/06/14 01:40:15;;;;;;;0.10;0.10;;;;;;;21.91;46.06;101973.28;5134144;27;20079;-40
2022/06/14 01:43:12;;;;;;;0.10;0.10;;;;;;;21.89;46.19;101972.72;5127836;27;20035;-40
2022/06/14 01:46:06;;;;;;;0.10;0.10;;;;;;;21.90;46.08;101979.94;5123342;27;20079;-40
2022/06/14 01:52:02;;;;;;;0.10;0.10;;;;;;;21.88;46.15;101976.59;5110012;27;20094;-41
2022/06/14 01:54:52;;;;;;;0.10;0.10;;;;;;;21.89;46.01;101977.41;5112386;27;20510;-41
2022/06/14 01:57:29;;;;;;;0.10;0.10;;;;;;;21.88;46.07;101979.38;5123052;27;20067;-42
2022/06/14 02:00:09;;;;;;;0.10;0.10;;;;;;;21.88;46.20;101973.81;5131991;27;20082;-41
2022/06/14 02:02:39;;;;;;;0.10;0.10;;;;;;;21.88;46.14;101971.03;5132095;27;20079;-40
2022/06/14 02:05:18;;;;;;;0.10;0.10;;;;;;;21.89;46.14;101974.66;5114177;28;20051;-42
2022/06/14 02:10:40;;;;;;;0.10;0.10;;;;;;;21.92;46.02;101968.56;5163512;27;20407;-29
2022/06/14 02:13:27;;;;;;;0.10;0.10;;;;;;;21.91;45.99;101978.00;5149196;27;20319;-30
2022/06/14 02:16:03;;;;;;;0.10;0.10;;;;;;;21.89;45.92;101982.97;5134480;27;20039;-30
2022/06/14 02:18:53;;;;;;;0.10;0.10;;;;;;;21.88;46.06;101970.22;5127498;27;20070;-31
2022/06/14 02:21:27;;;;;;;0.10;0.10;;;;;;;21.86;46.01;101970.50;5132395;27;20368;-38
2022/06/14 02:23:57;;;;;;;0.10;0.10;;;;;;;21.86;45.95;101969.66;5146579;27;20078;-37
2022/06/14 02:26:34;;;;;;;0.10;0.10;;;;;;;21.85;46.08;101965.19;5098842;27;20486;-38
2022/06/14 02:29:07;;;;;;;0.10;0.10;;;;;;;21.85;45.94;101962.44;5145349;27;20556;-38
2022/06/14 02:31:41;;;;;;;0.10;0.10;;;;;;;21.85;46.04;101960.53;5125804;27;20499;-40
2022/06/14 02:34:12;;;;;;;0.10;0.10;;;;;;;21.86;45.93;101962.19;5147098;27;20051;-41
2022/06/14 02:36:44;;;;;;;0.10;0.10;;;;;;;21.84;46.01;101961.59;5145231;27;20479;-40
2022/06/14 02:39:14;;;;;;;0.10;0.10;;;;;;;21.84;46.01;101961.59;5144889;27;20446;-41
2022/06/14 02:41:46;;;;;;;0.10;0.10;;;;;;;21.85;46.03;101960.53;5146091;27;20067;-41
2022/06/14 02:44:39;;;;;;;0.10;0.10;;;;;;;21.85;45.98;101956.88;5146191;27;20469;-40
2022/06/14 02:47:11;;;;;;;0.10;0.10;;;;;;;21.84;46.08;101955.22;5128439;27;20482;-40
2022/06/14 02:49:43;;;;;;;0.10;0.10;;;;;;;21.84;45.99;101960.78;5145768;27;20074;-40
2022/06/14 02:52:18;;;;;;;0.10;0.10;;;;;;;21.83;45.93;101954.41;5145593;27;20457;-39
2022/06/14 02:54:52;;;;;;;0.10;0.10;;;;;;;21.83;45.92;101950.78;5127401;27;20088;-39
2022/06/14 02:57:26;;;;;;;0.10;0.10;;;;;;;21.82;45.96;101954.69;5117473;27;20039;-40
2022/06/14 03:00:00;;;;;;;0.10;0.10;;;;;;;21.83;45.98;101953.56;5126583;27;20134;-40
2022/06/14 03:02:31;;;;;;;0.10;0.10;;;;;;;21.82;46.02;101958.28;5129780;27;20173;-41
2022/06/14 03:05:04;;;;;;;0.10;0.10;;;;;;;21.82;45.91;101952.75;5128623;27;20103;-40
2022/06/14 03:07:36;;;;;;;0.10;0.10;;;;;;;21.82;45.97;101947.19;5126056;27;20086;-40
2022/06/14 03:10:02;;;;;;;0.10;0.10;;;;;;;21.82;46.00;101947.19;5144772;27;20137;-40
2022/06/14 03:12:56;;;;;;;0.10;0.10;;;;;;;21.82;45.86;101944.41;5145631;27;20142;-42
2022/06/14 03:15:43;;;;;;;0.10;0.10;;;;;;;21.81;45.76;101940.00;5129909;27;20082;-42
2022/06/14 03:18:30;;;;;;;0.10;0.10;;;;;;;21.82;45.83;101946.38;5143685;27;20130;-42
2022/06/14 03:21:07;;;;;;;0.10;0.10;;;;;;;21.80;45.94;101946.63;5117875;27;20101;-42
2022/06/14 03:23:47;;;;;;;0.10;0.10;;;;;;;21.80;45.97;101943.84;5113175;28;20086;-42
2022/06/14 03:26:20;;;;;;;0.10;0.10;;;;;;;21.81;45.81;101947.47;5111538;28;20409;-42
2022/06/14 03:28:49;;;;;;;0.10;0.10;;;;;;;21.80;45.90;101938.31;5130942;27;20138;-41
2022/06/14 03:31:36;;;;;;;0.10;0.10;;;;;;;21.79;45.90;101940.25;5112508;28;20373;-41
2022/06/14 03:34:07;;;;;;;0.10;0.10;;;;;;;21.79;45.91;101940.25;5113091;28;20502;-41
2022/06/14 03:36:33;;;;;;;0.10;0.10;;;;;;;21.78;45.76;101935.81;5113956;28;20078;-41
2022/06/14 03:39:04;;;;;;;0.10;0.10;;;;;;;21.79;46.04;101933.88;5131145;28;20043;-41
2022/06/14 03:41:32;;;;;;;0.10;0.10;;;;;;;21.79;45.62;101934.69;5098370;27;20090;-41
2022/06/14 03:44:00;;;;;;;0.10;0.10;;;;;;;21.78;45.84;101935.81;5130685;27;20077;-42
2022/06/14 03:46:30;;;;;;;0.10;0.10;;;;;;;21.78;45.82;101934.97;5108335;27;20061;-39
2022/06/14 03:49:02;;;;;;;0.10;0.10;;;;;;;21.79;45.70;101939.41;5126450;27;20067;-39
2022/06/14 03:51:52;;;;;;;0.10;0.10;;;;;;;21.78;45.81;101935.81;5140969;27;20700;-39
2022/06/14 03:54:58;;;;;;;0.10;0.10;;;;;;;21.78;45.81;101944.13;5136432;27;20520;-41
2022/06/14 03:57:40;;;;;;;0.10;0.10;;;;;;;21.77;45.87;101942.47;5118904;27;20170;-40
2022/06/14 04:00:21;;;;;;;0.10;0.10;;;;;;;21.77;45.89;101942.47;5146892;27;20085;-41
2022/06/14 04:03:04;;;;;;;0.10;0.10;;;;;;;21.78;45.84;101943.31;5131463;27;20086;-41
2022/06/14 04:06:10;;;;;;;0.10;0.10;;;;;;;21.77;45.76;101942.47;5130055;27;20042;-41
2022/06/14 04:08:59;;;;;;;0.10;0.10;;;;;;;21.78;45.73;101940.53;5120954;27;20126;-40
2022/06/14 04:11:36;;;;;;;0.10;0.10;;;;;;;21.77;45.72;101942.47;5129297;27;20073;-41
2022/06/14 04:17:11;;;;;;;0.10;0.10;;;;;;;21.76;45.90;101951.03;5157103;27;20128;-30
2022/06/14 04:20:07;;;;;;;0.10;0.10;;;;;;;21.77;45.80;101947.19;5129351;27;20081;-31
2022/06/14 04:23:03;;;;;;;0.10;0.10;;;;;;;21.76;45.76;101946.34;5138660;27;20134;-30
2022/06/14 04:25:35;;;;;;;0.10;0.10;;;;;;;21.75;45.83;101947.44;5143471;27;20069;-40
2022/06/14 04:28:29;;;;;;;0.10;0.10;;;;;;;21.74;45.73;101943.00;5159728;27;20038;-40
2022/06/14 04:31:01;;;;;;;0.10;0.10;;;;;;;21.74;45.86;101937.47;5142035;27;20069;-42
2022/06/14 04:33:32;;;;;;;0.10;0.10;;;;;;;21.75;45.85;101941.06;5157804;27;20058;-42
2022/06/14 04:36:08;;;;;;;0.10;0.10;;;;;;;21.74;45.60;101951.31;5161986;27;20078;-42
2022/06/14 04:38:38;;;;;;;0.10;0.10;;;;;;;21.74;45.74;101940.25;5141350;27;20070;-42
2022/06/14 04:41:08;;;;;;;0.10;0.10;;;;;;;21.75;45.68;101949.38;5136654;27;20077;-42
2022/06/14 04:43:53;;;;;;;0.10;0.10;;;;;;;21.74;45.79;101942.19;5121021;27;20122;-42
2022/06/14 04:46:23;;;;;;;0.10;0.10;;;;;;;21.74;45.88;101942.19;5138265;27;20051;-42
2022/06/14 04:48:56;;;;;;;0.10;0.10;;;;;;;21.74;45.88;101942.19;5152399;27;20434;-41
2022/06/14 04:51:33;;;;;;;0.10;0.10;;;;;;;21.74;45.98;101943.00;5146137;27;20082;-42
2022/06/14 04:54:07;;;;;;;0.10;0.10;;;;;;;21.73;45.85;101941.34;5134720;27;20074;-43
2022/06/14 04:56:39;;;;;;;0.10;0.10;;;;;;;21.72;45.77;101945.25;5155621;27;20137;-42
2022/06/14 04:59:13;;;;;;;0.10;0.10;;;;;;;21.72;45.86;101950.78;5139602;27;20126;-42
2022/06/14 05:01:58;;;;;;;0.10;0.10;;;;;;;21.73;45.84;101949.66;5154635;27;20533;-41
2022/06/14 05:04:30;;;;;;;0.10;0.10;;;;;;;21.73;45.85;101949.66;5134252;27;20039;-42
2022/06/14 05:07:01;;;;;;;0.10;0.10;;;;;;;21.72;45.93;101955.50;5154362;27;20054;-41
2022/06/14 05:09:33;;;;;;;0.10;0.10;;;;;;;21.74;45.86;101958.81;5138424;27;20201;-41
2022/06/14 05:12:11;;;;;;;0.10;0.10;;;;;;;21.71;46.00;101957.41;5139076;27;20268;-43
2022/06/14 05:14:43;;;;;;;0.10;0.10;;;;;;;21.72;45.96;101955.50;5121932;27;20050;-42
2022/06/14 05:17:12;;;;;;;0.10;0.10;;;;;;;21.72;45.92;101947.19;5158825;27;20124;-41
2022/06/14 05:19:49;;;;;;;0.10;0.10;;;;;;;21.71;46.05;101949.09;5155340;27;20533;-40
2022/06/14 05:22:24;;;;;;;0.10;0.10;;;;;;;21.71;45.88;101954.63;5140744;27;20073;-42
2022/06/14 05:24:50;;;;;;;0.10;0.10;;;;;;;21.72;45.85;101958.28;5134235;27;20317;-43
2022/06/14 05:27:41;;;;;;;0.10;0.10;;;;;;;21.72;45.86;101958.28;5128727;27;20133;-41
2022/06/14 05:30:15;;;;;;;0.10;0.10;;;;;;;21.73;45.82;101958.00;5125795;27;20085;-43
2022/06/14 05:33:02;;;;;;;0.10;0.10;;;;;;;21.17;46.04;101957.75;5120802;27;20547;-39
2022/06/14 05:35:35;;;;;;;0.10;0.10;;;;;;;21.05;46.27;101955.19;5125052;27;20129;-34
2022/06/14 05:38:40;;;;;;;0.10;0.10;;;;;;;20.90;46.49;101962.59;5143410;27;20617;-39
2022/06/14 05:41:12;;;;;;;0.10;0.10;;;;;;;20.87;46.62;101957.56;5111651;27;20086;-38
2022/06/14 05:43:44;;;;;;;0.10;0.10;;;;;;;20.85;46.43;101957.00;5122918;27;20464;-35
2022/06/14 05:46:25;;;;;;;0.10;0.10;;;;;;;20.80;46.49;101955.03;5121378;27;20074;-40
2022/06/14 05:49:04;;;;;;;0.10;0.10;;;;;;;20.78;46.67;101958.06;5131870;27;20679;-37
2022/06/14 05:51:35;;;;;;;0.10;0.10;;;;;;;20.78;46.99;101960.00;5124891;27;20130;-36
2022/06/14 05:54:15;;;;;;;0.10;0.10;;;;;;;20.80;46.79;101961.41;5141001;27;20130;-37
2022/06/14 05:56:47;;;;;;;0.10;0.10;;;;;;;20.70;47.21;101964.09;5128022;27;20139;-35
2022/06/14 05:59:35;;;;;;;0.10;0.10;;;;;;;20.71;46.73;101965.78;5125254;27;20102;-35
2022/06/14 06:02:16;;;;;;;0.10;0.10;;;;;;;20.68;46.67;101962.69;5122474;27;20439;-38
2022/06/14 06:04:51;;;;;;;0.10;0.10;;;;;;;20.64;46.52;101967.94;5124424;27;20047;-37
2022/06/14 06:07:25;;;;;;;0.10;0.10;;;;;;;20.60;45.79;101969.56;5123899;27;20505;-34
2022/06/14 06:09:57;;;;;;;0.13;0.13;;;;;;;20.86;46.29;101973.34;5127073;27;20087;-41
2022/06/14 06:12:28;;;;;;;0.10;0.10;;;;;;;21.14;45.78;101961.03;5124592;27;20480;-40
2022/06/14 06:15:02;;;;;;;0.10;0.10;;;;;;;21.32;45.52;101964.47;5124958;27;20127;-39
2022/06/14 06:17:33;;;;;;;0.10;0.10;;;;;;;21.40;45.31;101970.34;5129003;27;20634;-41
2022/06/14 06:20:15;;;;;;;0.10;0.10;;;;;;;21.47;45.20;101965.38;5126864;27;20536;-41
2022/06/14 06:22:46;;;;;;;0.20;0.20;;;;;;;21.52;45.28;101962.63;5127473;27;20890;-40
2022/06/14 06:25:16;;;;;;;0.10;0.10;;;;;;;21.57;45.19;101967.34;5127461;27;20117;-40
2022/06/14 06:27:47;;;;;;;0.10;0.10;;;;;;;21.61;45.08;101973.19;5119592;27;20142;-41
2022/06/14 06:30:20;;;;;;;0.10;0.10;;;;;;;21.63;45.17;101971.84;5123102;27;20587;-41
2022/06/14 06:32:46;;;;;;;0.10;0.10;;;;;;;21.65;45.19;101974.31;5123242;27;20507;-40
2022/06/14 06:35:13;;;;;;;0.10;0.10;;;;;;;21.69;44.99;101983.75;5123653;27;20047;-40
2022/06/14 06:37:50;;;;;;;0.10;0.10;;;;;;;21.68;45.04;101974.63;5125981;27;20075;-40
2022/06/14 06:40:20;;;;;;;0.10;0.10;;;;;;;21.71;45.13;101981.53;5114570;27;20176;-42
2022/06/14 06:43:05;;;;;;;0.10;0.10;;;;;;;21.71;45.13;101979.59;5114840;27;20071;-41
2022/06/14 06:45:35;;;;;;;0.10;0.10;;;;;;;21.73;45.17;101980.16;5117884;27;20044;-42
2022/06/14 06:48:11;;;;;;;0.10;0.10;;;;;;;21.74;45.18;101981.81;5115349;27;20141;-42
2022/06/14 06:51:01;;;;;;;0.10;0.10;;;;;;;21.76;45.06;101982.41;5116863;27;20078;-40
2022/06/14 06:53:35;;;;;;;0.10;0.10;;;;;;;21.77;45.16;101978.50;5120329;27;20078;-41
2022/06/14 06:56:06;;;;;;;0.10;0.10;;;;;;;21.79;45.07;101986.56;5118270;27;20550;-40
2022/06/14 06:58:35;;;;;;;0.10;0.10;;;;;;;21.81;45.20;101976.03;5114416;27;20138;-40
2022/06/14 07:01:07;;;;;;;0.10;0.10;;;;;;;21.82;44.90;101979.63;5118940;27;20070;-40
2022/06/14 07:03:49;;;;;;;0.10;0.10;;;;;;;21.83;45.14;101981.28;5117636;27;20071;-40
2022/06/14 07:06:22;;;;;;;0.10;0.10;;;;;;;21.84;45.16;101982.97;5115736;27;20088;-40
2022/06/14 07:08:56;;;;;;;;;;;;;;;21.85;45.04;101982.72;5118325;27;20450;-40
2022/06/14 07:11:25;;;;;;;0.10;0.10;;;;;;;21.85;45.15;101982.72;5120167;27;19976;-40
2022/06/14 07:13:58;;;;;;;0.10;0.10;;;;;;;21.88;45.14;101981.31;5114183;27;21145;-41
2022/06/14 07:16:29;;;;;;;0.10;0.10;;;;;;;21.89;45.07;101982.97;5116469;27;20557;-41
2022/06/14 07:19:32;;;;;;;0.10;0.10;;;;;;;21.89;45.25;101981.06;5118323;28;20035;-40
2022/06/14 07:22:11;;;;;;;0.10;0.10;;;;;;;21.90;45.09;101981.88;5119994;27;20105;-39
2022/06/14 07:24:49;;;;;;;0.10;0.10;;;;;;;21.91;45.14;101984.38;5118703;27;20115;-41
2022/06/14 07:27:38;;;;;;;0.10;0.10;;;;;;;21.91;45.13;101980.75;5113027;27;20386;-41
2022/06/14 07:30:10;;;;;;;0.10;0.10;;;;;;;21.91;45.12;101986.31;5120233;27;20083;-40
2022/06/14 07:32:41;;;;;;;0.10;0.10;;;;;;;21.91;45.11;101995.47;5117603;27;20058;-40
2022/06/14 07:35:06;;;;;;;0.10;0.10;;;;;;;21.92;45.23;101982.44;5117793;27;20082;-40
2022/06/14 07:37:40;;;;;;;0.10;0.10;;;;;;;21.91;45.14;101995.47;5112635;27;20051;-41
2022/06/14 07:40:46;;;;;;;0.10;0.10;;;;;;;21.92;45.20;101994.34;5118110;27;20291;-43
2022/06/14 07:43:36;;;;;;;0.10;0.10;;;;;;;21.68;45.06;101994.03;5116276;27;20181;-40
2022/06/14 07:46:07;;;;;;;0.10;0.10;;;;;;;21.82;45.13;101986.00;5112202;27;20105;-45
2022/06/14 07:48:54;;;;;;;0.10;0.10;;;;;;;21.89;44.96;101989.38;5118353;27;20489;-41
2022/06/14 07:51:27;;;;;;;0.10;0.10;;;;;;;21.91;44.97;101987.16;5117183;27;20067;-40
2022/06/14 07:54:06;;;;;;;0.10;0.10;;;;;;;21.94;44.94;101989.38;5116428;27;20426;-42
2022/06/14 07:57:00;;;;;;;0.10;0.10;;;;;;;21.96;45.05;101989.09;5113063;27;20047;-39
2022/06/14 07:59:31;;;;;;;0.10;0.10;;;;;;;21.96;45.03;101978.81;5128123;27;20134;-40
2022/06/14 08:02:02;;;;;;;0.10;0.10;;;;;;;21.97;45.11;101985.22;5120713;27;20079;-39
2022/06/14 08:04:41;;;;;;;0.10;0.10;;;;;;;21.98;45.09;101984.13;5115630;27;20086;-42
2022/06/14 08:07:12;;;;;;;0.10;0.10;;;;;;;21.99;44.90;101977.47;5119455;27;20074;-42
2022/06/14 08:10:00;;;;;;;0.10;0.10;;;;;;;21.99;45.06;101975.50;5117032;27;20078;-40
2022/06/14 08:12:36;;;;;;;0.10;0.10;;;;;;;21.68;44.34;101979.31;5105158;27;20059;-38
2022/06/14 08:15:08;;;;;;;0.10;0.10;;;;;;;21.89;45.20;101969.97;5119932;27;20240;-39
2022/06/14 08:17:56;;;;;;;0.10;0.10;;;;;;;21.98;44.90;101968.31;5117862;27;20074;-41
2022/06/14 08:20:26;;;;;;;0.10;0.10;;;;;;;22.02;45.05;101957.47;5117937;27;20492;-40
2022/06/14 08:22:56;;;;;;;0.10;0.10;;;;;;;22.03;44.94;101961.94;5115350;27;20126;-40
2022/06/14 08:25:24;;;;;;;0.10;0.10;;;;;;;22.05;44.88;101963.31;5117787;27;20085;-40
2022/06/14 08:27:51;;;;;;;;;;;;;;;22.05;44.92;101960.53;5118757;27;20071;-39
2022/06/14 08:30:20;;;;;;;0.10;0.10;;;;;;;22.07;44.96;101951.13;5119654;27;20073;-40
2022/06/14 08:32:55;;;;;;;0.10;0.10;;;;;;;22.08;44.94;101956.38;5124504;27;20468;-41
2022/06/14 08:35:42;;;;;;;0.10;0.10;;;;;;;22.09;44.83;101955.28;5118099;27;20093;-40
2022/06/14 08:38:12;;;;;;;0.10;0.10;;;;;;;22.09;45.00;101948.91;5119415;27;20134;-40
2022/06/14 08:41:07;;;;;;;0.10;0.10;;;;;;;22.10;44.94;101937.50;5118667;27;20043;-39
2022/06/14 08:43:40;;;;;;;0.10;0.10;;;;;;;22.10;44.91;101939.47;5125922;27;20127;-39
2022/06/14 08:46:30;;;;;;;0.10;0.10;;;;;;;22.11;44.83;101943.91;5126648;27;20611;-40
2022/06/14 08:49:30;;;;;;;0.10;0.10;;;;;;;22.12;44.89;101940.03;5119317;27;20085;-39
2022/06/14 08:52:24;;;;;;;0.10;0.10;;;;;;;22.13;44.91;101939.78;5123755;27;20133;-40
2022/06/14 08:55:30;;;;;;;0.10;0.10;;;;;;;22.14;44.75;101935.06;5126899;27;20058;-38
2022/06/14 08:58:35;;;;;;;0.10;0.10;;;;;;;22.14;44.80;101933.09;5124227;27;20130;-39
2022/06/14 09:01:16;;;;;;;0.10;0.10;;;;;;;22.15;44.82;101928.38;5122915;27;20082;-39
2022/06/14 09:04:03;;;;;;;0.10;0.10;;;;;;;22.16;44.66;101936.44;5134981;27;20043;-38
2022/06/14 09:07:03;;;;;;;0.20;0.20;;;;;;;22.17;44.83;101938.09;5110203;27;20130;-41
2022/06/14 09:10:10;;;;;;;0.10;0.10;;;;;;;22.17;44.75;101928.97;5124060;27;20165;-39
2022/06/14 09:13:00;;;;;;;0.10;0.10;;;;;;;22.18;44.64;101933.38;5105460;28;20486;-40
2022/06/14 09:15:42;;;;;;;0.10;0.10;;;;;;;22.20;44.63;101922.88;5124797;27;20086;-41
2022/06/14 09:18:12;;;;;;;0.10;0.10;;;;;;;22.19;44.74;101929.50;5114472;27;20047;-40
2022/06/14 09:20:48;;;;;;;0.10;0.10;;;;;;;22.10;44.23;101925.59;5101249;28;20146;-43
2022/06/14 09:23:19;;;;;;;0.10;0.10;;;;;;;22.17;43.20;101924.25;5123910;27;20074;-39
2022/06/14 09:26:10;;;;;;;0.10;0.10;;;;;;;22.24;44.00;101926.75;5107014;27;20054;-39
2022/06/14 09:29:15;;;;;;;0.10;0.10;;;;;;;22.25;44.00;101922.84;5117544;27;20116;-39
2022/06/14 09:32:11;;;;;;;0.10;0.10;;;;;;;22.26;44.13;101930.06;5105934;27;20472;-39
2022/06/14 09:34:55;;;;;;;0.10;0.10;;;;;;;22.25;44.15;101923.69;5119737;27;20050;-40
2022/06/14 09:43:37;;;;;;;0.10;0.10;;;;;;;22.27;44.21;101928.94;5152963;27;20210;-37
2022/06/14 09:46:23;;;;;;;0.10;0.10;;;;;;;22.27;44.24;101929.78;5116315;27;20085;-38
2022/06/14 09:49:15;;;;;;;0.10;0.10;;;;;;;22.27;44.28;101929.78;5140480;27;20050;-38
2022/06/14 09:52:07;;;;;;;0.10;0.10;;;;;;;22.28;44.29;101938.97;5129734;27;20047;-36
2022/06/14 09:55:02;;;;;;;0.10;0.10;;;;;;;22.28;44.07;101928.69;5129325;27;20126;-36
2022/06/14 09:57:38;;;;;;;0.10;0.10;;;;;;;22.29;44.34;101930.34;5127672;27;20070;-38
2022/06/14 10:00:13;;;;;;;0.10;0.10;;;;;;;22.29;44.18;101927.56;5123710;27;20074;-39
2022/06/14 10:03:18;;;;;;;0.10;0.10;;;;;;;22.31;44.19;101935.59;5123957;27;20500;-38
2022/06/14 10:08:56;;;;;;;0.10;0.10;;;;;;;22.31;44.22;101921.72;5165423;27;20234;-36
2022/06/14 10:12:02;;;;;;;0.10;0.10;;;;;;;22.33;44.16;101922.31;5146342;27;20130;-35
2022/06/14 10:15:07;;;;;;;0.10;0.10;;;;;;;22.33;44.33;101921.47;5112076;27;20130;-38
2022/06/14 10:17:41;;;;;;;0.10;0.10;;;;;;;22.33;44.04;101919.53;5113105;27;20086;-38
2022/06/14 10:20:34;;;;;;;0.10;0.10;;;;;;;22.34;44.12;101917.59;5138669;27;20137;-39
2022/06/14 10:29:47;;;;;;;0.10;0.10;;;;;;;22.35;44.09;101902.59;5118912;27;20050;-37
2022/06/14 10:32:25;;;;;;;0.10;0.10;;;;;;;22.35;44.09;101900.63;5160732;27;20858;-38
2022/06/14 10:35:17;;;;;;;0.10;0.10;;;;;;;22.36;44.09;101895.91;5157749;27;20381;-37
2022/06/14 10:38:09;;;;;;;0.10;0.10;;;;;;;22.35;44.09;101894.25;5142991;27;20569;-37
2022/06/14 10:40:41;;;;;;;0.10;0.10;;;;;;;22.35;44.21;101892.31;5146552;27;20174;-37
2022/06/14 10:43:14;;;;;;;0.10;0.10;;;;;;;22.36;43.94;101890.38;5143891;27;20404;-37
2022/06/14 10:45:57;;;;;;;0.10;0.10;;;;;;;22.35;44.02;101886.75;5161198;27;20043;-38
2022/06/14 10:48:38;;;;;;;0.10;0.10;;;;;;;22.36;44.18;101879.28;5136139;27;20683;-39
2022/06/14 10:51:36;;;;;;;0.10;0.10;;;;;;;22.35;44.21;101881.22;5154933;27;20450;-37
2022/06/14 10:54:34;;;;;;;0.10;0.10;;;;;;;22.36;44.06;101880.09;5146235;27;20555;-38
2022/06/14 11:00:21;;;;;;;0.10;0.10;;;;;;;22.35;44.25;101875.66;5154052;27;20194;-38
2022/06/14 11:03:24;;;;;;;0.10;0.10;;;;;;;22.34;44.14;101862.91;5120488;27;20134;-39
2022/06/14 11:06:14;;;;;;;0.10;0.10;;;;;;;22.34;44.22;101868.47;5122503;27;20500;-37
2022/06/14 11:09:06;;;;;;;0.10;0.10;;;;;;;22.34;44.10;101864.84;5117473;27;20130;-36
2022/06/14 11:11:45;;;;;;;0.10;0.10;;;;;;;22.34;44.34;101860.13;5106517;27;20140;-38
2022/06/14 11:14:51;;;;;;;0.10;0.10;;;;;;;22.33;44.36;101863.19;5132156;27;20129;-39
2022/06/14 11:17:56;;;;;;;0.10;0.10;;;;;;;22.33;44.34;101852.94;5104256;27;20143;-38
2022/06/14 11:20:54;;;;;;;0.10;0.10;;;;;;;22.32;44.40;101851.25;5122837;27;20047;-37
2022/06/14 11:23:44;;;;;;;0.10;0.10;;;;;;;22.32;44.28;101851.25;5119211;27;20187;-37
2022/06/14 11:26:18;;;;;;;0.10;0.10;;;;;;;22.32;44.26;101845.69;5117381;27;20472;-38
2022/06/14 11:28:54;;;;;;;0.10;0.10;;;;;;;22.30;44.43;101842.38;5116304;27;20093;-39
2022/06/14 11:31:42;;;;;;;0.10;0.10;;;;;;;22.31;44.31;101840.44;5118913;27;20315;-37
2022/06/14 11:34:43;;;;;;;0.10;0.10;;;;;;;22.30;44.37;101831.28;5117529;27;20466;-37
2022/06/14 11:37:48;;;;;;;0.10;0.10;;;;;;;22.29;44.42;101826.84;5112475;27;20555;-38
2022/06/14 11:40:18;;;;;;;0.10;0.10;;;;;;;22.28;44.41;101834.34;5103781;27;20070;-38
2022/06/14 11:43:29;;;;;;;0.10;0.10;;;;;;;22.30;44.35;101820.19;5120909;27;20046;-38
2022/06/14 11:45:59;;;;;;;0.10;0.10;;;;;;;22.28;44.29;101830.75;5118622;27;20051;-38
2022/06/14 11:48:47;;;;;;;0.10;0.10;;;;;;;22.22;43.61;101821.56;5130526;27;20458;-37
2022/06/14 11:51:39;;;;;;;0.10;0.10;;;;;;;22.28;43.58;101816.88;5102411;27;20126;-38
2022/06/14 11:54:19;;;;;;;0.10;0.10;;;;;;;22.28;43.70;101812.16;5122564;27;20126;-37
2022/06/14 11:56:51;;;;;;;0.10;0.10;;;;;;;22.29;43.95;101808.25;5120352;27;20117;-38
2022/06/14 12:02:16;;;;;;;0.10;0.10;;;;;;;22.28;44.03;101801.03;5151435;27;20210;-36
2022/06/14 12:05:00;;;;;;;0.10;0.10;;;;;;;22.29;44.10;101797.16;5135701;27;21690;-40
2022/06/14 12:07:36;;;;;;;0.10;0.10;;;;;;;22.31;44.12;101796.03;5134264;27;20053;-39
2022/06/14 12:10:26;;;;;;;0.10;0.10;;;;;;;22.29;44.11;101791.59;5140840;27;20086;-41
2022/06/14 12:15:58;;;;;;;0.10;0.10;;;;;;;22.29;44.03;101797.16;5170866;27;20208;-37
2022/06/14 12:18:28;;;;;;;0.10;0.10;;;;;;;22.30;44.13;101789.66;5159301;27;20508;-38
2022/06/14 12:21:33;;;;;;;0.10;0.10;;;;;;;22.36;44.02;101791.28;5148445;27;20512;-38
2022/06/14 12:24:04;;;;;;;0.10;0.10;;;;;;;22.38;44.00;101794.63;5145249;27;20596;-38
2022/06/14 12:26:40;;;;;;;0.10;0.10;;;;;;;22.38;44.14;101786.31;5158580;27;20138;-40
2022/06/14 12:32:00;;;;;;;0.10;0.10;;;;;;;22.38;44.00;101777.97;5149463;27;20125;-38
2022/06/14 12:34:31;;;;;;;0.10;0.10;;;;;;;22.39;44.20;101779.63;5145011;27;20546;-38
2022/06/14 12:39:47;;;;;;;0.10;0.10;;;;;;;22.41;44.10;101777.44;5159113;27;20205;-32
2022/06/14 12:42:25;;;;;;;0.10;0.10;;;;;;;22.41;44.14;101759.91;5120389;27;20070;-33
2022/06/14 12:45:01;;;;;;;;;;;;;;;22.41;44.23;101757.13;5137205;27;20108;-33
2022/06/14 12:50:29;;;;;;;0.10;0.10;;;;;;;22.42;44.32;101759.66;5155828;27;20213;-40
2022/06/14 12:52:59;;;;;;;0.10;0.10;;;;;;;22.41;44.22;101757.13;5149423;27;20759;-41
2022/06/14 12:55:29;;;;;;;0.10;0.10;;;;;;;22.42;44.22;101740.22;5146745;27;20125;-43
2022/06/14 12:58:18;;;;;;;0.10;0.10;;;;;;;22.43;44.24;101739.09;5130180;27;20137;-40
2022/06/14 13:00:59;;;;;;;0.10;0.10;;;;;;;22.44;44.18;101735.19;5137053;27;20050;-42